ME38 weather

Mars Hill Airport
Mars Hill, Maine, United States

Public forecast

Using degrees Fahrenheit for public forecast. Weather courtesy of forecast.io.

Closest aviation weather report (METAR) to Mars Hill Airport

Closest report is Presque Isle International Airport, 12.0 nm (22.1 km) NW. Retrieved 2020/05/27 00:56 UTC (51 minutes ago):

KPQI 270056Z AUTO 20007KT 10SM BKN075 OVC100 23/18 A3009 RMK AO2 RAE51 SLP212 P0000 T02330183

Closest aviation forecast (TAF) to Mars Hill Airport

Closest forecast is Presque Isle International Airport, 12.0 nm (22.1 km) NW. Retrieved 2020-05-27 00:22 UTC (1 hour ago):

TAF KPQI 262320Z 2700/2724 22005KT P6SM VCSH BKN080 FM270400 VRB03KT P6SM VCSH BKN060 FM270900 VRB02KT 5SM BR BKN025 FM271200 22005KT P6SM BKN050 FM272200 13005KT P6SM VCSH BKN060